Aérodrome :
LOGIN :

S'inscrire | Disclaimer

   EN    FR    IT 

 










Légende :    VFR   VFR Marginal   IFR   IFR Intensif   IFR Très Intensif
Visi : 
Plafond : 
>= 8 km
>= 3000ft
5 à 8 km
1000 à 3000 ft
1500m à 5 km
500 à 1000 ft
800 à 1500m
200 à 500 ft
< 800m
< 200 ft
Symboles :   Orages  Brouillard  Fortes neiges  Fortes précipitations  Vent > 20 kt
SIGMETs :   Divers  Orages  Givrage  Turbulence  Onde Orograph.  Cendres Volcan.







- Altitude de l'aérodrome : 461 ft
- Code IATA : WIE


ETOU - Wiesbaden Army

DERNIER METAR :
  • 172103Z AUTO 00000KT 1600 R25/0800V1100 BR CLR M A3030 RMK AO2 VIS 0800 RWY07 SLPNO ALSTG ESTMD $

METARs EXPIRÉS :
  • 172056Z AUTO 00000KT 2000 R25/1000 BR CLR M A3031 RMK AO2 VIS 1000 RWY07 SLPNO ALSTG ESTMD 53002 $
  • 172044Z AUTO 00000KT 2400 R25/1100 BR FEW002 M A3031 RMK AO2 SLPNO ALSTG ESTMD $
  • 172034Z AUTO 00000KT 3000 R25/1400 BR SCT002 M A3031 RMK AO2 VIS 2200 RWY07 SLPNO ALSTG ESTMD $
  • 172020Z AUTO 00000KT 4000 R25/1500 BR BKN002 M A3030 RMK AO2 VIS 2400 RWY07 SLPNO ALSTG ESTMD $
  • 172015Z AUTO 00000KT 4000 BR OVC003 M A3031 RMK AO2 VIS 2600 RWY07 SLPNO ALSTG ESTMD $
  • 171956Z AUTO 00000KT 4400 BR OVC003 M A3030 RMK AO2 VIS 2600 RWY07 CIG 002 RWY07 SLPNO ALSTG ESTMD $
  • 171940Z AUTO 00000KT 4000 BR OVC003 05/05 A3029 RMK AO2 VIS 3000 RWY07 CIG 002 RWY07 SLP265
  • 171931Z AUTO 00000KT 4000 R25/1500 BR OVC003 05/05 A3029 RMK AO2 VIS 3200 RWY07 CIG 002 RWY07 SLP265
  • 171856Z AUTO 00000KT 4400 BR OVC003 05/05 A3030 RMK AO2 VIS 3600 RWY07 SLP269 T00500047
  • 171806Z AUTO 00000KT 4400 BR OVC003 05/05 A3030 RMK AO2 VIS 3200 RWY07 SLP269

TAF AMD TAF ETOU
Valide du 17 à 14h jusqu'au 18 à 17h UTC


171822Z 1714/1817 VRB06KT 4000 BR OVC003 620505 QNH3028INS
TEMPO 1717/1720 6000 BR OVC007
BECMG 1719/1720 VRB03KT 6000 BR SCT006 BKN020 QNH2025INS
TEMPO 1802/1806 3200 BR BKN010
BECMG 1810/1811 30010G15KT 9999 NSW BKN020 QNH2021INS TX07/1714Z TN00/1803Z LAST NO AMDS AFT 1718Z NEXT 1803Z
Pas de NOTAMs connus pour ce terrain.



MET'MAP, la Météo Aéronautique d'un coup d'oeil ! - Copyright ORBIFLY Décembre 2007 - Disclaimer

ORBIFLY MET'MAP TEAM :

Programmation & Développement : Alexandra Zaïnal
Conception & Développement : Baudouin d'Aumeries
Co-Programmation & Développement : Marc-Olivier Méhu
Soutien technique & logistique : Manuel Goepfert

Contact : metmap@orbifly.com




SOURCES & CREDITS :

   NOAA